| time (UTC) | temp F | wind direction | speed MPH | gust MPH | rain 1hr in | rain 24hr in | rain mn in | humidity % | barometer mb |
| 20260510181530 | 86 | 178 | 3.0 | 11.0 | 0.00 | 0.00 | 0.00 | 57 | 1017.3 |
| 20260510180029 | 85 | 209 | 4.0 | 11.0 | 0.00 | 0.00 | 0.00 | 57 | 1017.5 |
| 20260510174532 | 85 | 244 | 2.0 | 10.0 | 0.00 | 0.00 | 0.00 | 52 | 1017.7 |
| 20260510173035 | 85 | 211 | 3.0 | 14.0 | 0.00 | 0.00 | 0.00 | 52 | 1017.9 |
| 20260510171533 | 85 | 186 | 4.0 | 14.0 | 0.00 | 0.00 | 0.00 | 57 | 1017.9 |
| 20260510170031 | 85 | 227 | 3.0 | 11.0 | 0.00 | 0.00 | 0.00 | 53 | 1018.0 |
| 20260510164530 | 85 | 250 | 4.0 | 12.0 | 0.00 | 0.00 | 0.00 | 51 | 1018.0 |
| 20260510163032 | 85 | 194 | 4.0 | 15.0 | 0.00 | 0.00 | 0.00 | 47 | 1018.1 |
| 20260510161535 | 85 | 0 | 1.0 | 8.0 | 0.00 | 0.00 | 0.00 | 44 | 1018.0 |
| 20260510160036 | 84 | 242 | 3.0 | 10.0 | 0.00 | 0.00 | 0.00 | 48 | 1018.1 |
| 20260510154530 | 84 | 184 | 2.0 | 8.0 | 0.00 | 0.00 | 0.00 | 52 | 1018.1 |
| 20260510153035 | 84 | 136 | 3.0 | 10.0 | 0.00 | 0.00 | 0.00 | 49 | 1017.9 |
| 20260510151531 | 83 | 194 | 2.0 | 8.0 | 0.00 | 0.00 | 0.00 | 49 | 1017.7 |
| 20260510150041 | 83 | 174 | 2.0 | 12.0 | 0.00 | 0.00 | 0.00 | 49 | 1017.7 |
| 20260510144534 | 83 | 213 | 4.0 | 9.0 | 0.00 | 0.00 | 0.00 | 41 | 1017.5 |
| 20260510143032 | 83 | 204 | 1.0 | 8.0 | 0.00 | 0.00 | 0.00 | 35 | 1017.6 |
| 20260510141533 | 82 | 0 | 3.0 | 10.0 | 0.00 | 0.00 | 0.00 | 30 | 1017.4 |
| 20260510140031 | 82 | 218 | 3.0 | 8.0 | 0.00 | 0.00 | 0.00 | 29 | 1017.2 |
| 20260510134534 | 81 | 0 | 3.0 | 9.0 | 0.00 | 0.00 | 0.00 | 24 | 1017.1 |
| 20260510133029 | 80 | 188 | 2.0 | 7.0 | 0.00 | 0.00 | 0.00 | 16 | 1017.2 |
| 20260510131532 | 79 | 182 | 3.0 | 9.0 | 0.00 | 0.00 | 0.00 | 11 | 1017.0 |
| 20260510130032 | 78 | 126 | 2.0 | 9.0 | 0.00 | 0.00 | 0.00 | 100 | 1016.8 |
| 20260510124531 | 77 | 196 | 3.0 | 9.0 | 0.00 | 0.00 | 0.00 | 100 | 1016.6 |
| 20260510123030 | 76 | 0 | 0.0 | 5.0 | 0.00 | 0.00 | 0.00 | 100 | 1016.7 |
| 20260510121529 | 75 | 0 | 0.0 | 4.0 | 0.00 | 0.00 | 0.00 | 100 | 1016.7 |
| 20260510120030 | 74 | 0 | 0.0 | 0.0 | 0.00 | 0.00 | 0.00 | 100 | 1016.6 |
| 20260510114536 | 73 | 0 | 0.0 | 0.0 | 0.00 | 0.00 | 0.00 | 100 | 1016.5 |
| 20260510113034 | 72 | 0 | 0.0 | 0.0 | 0.00 | 0.00 | 0.00 | 100 | 1016.0 |
| 20260510111529 | 72 | 0 | 0.0 | 0.0 | 0.00 | 0.00 | 0.00 | 100 | 1015.9 |
| 20260510110029 | 72 | 0 | 0.0 | 0.0 | 0.00 | 0.00 | 0.00 | 100 | 1015.5 |
| 20260510104535 | 73 | 0 | 0.0 | 0.0 | 0.00 | 0.00 | 0.00 | 100 | 1015.0 |
| 20260510103026 | 73 | 0 | 0.0 | 0.0 | 0.00 | 0.00 | 0.00 | 100 | 1015.0 |
| 20260510101533 | 73 | 0 | 0.0 | 1.0 | 0.00 | 0.00 | 0.00 | 100 | 1014.7 |
| 20260510100030 | 73 | 0 | 0.0 | 0.0 | 0.00 | 0.00 | 0.00 | 100 | 1014.7 |
| 20260510094539 | 73 | 0 | 0.0 | 1.0 | 0.00 | 0.00 | 0.00 | 100 | 1014.5 |
| 20260510093029 | 73 | 0 | 0.0 | 5.0 | 0.00 | 0.00 | 0.00 | 100 | 1014.3 |
| 20260510091529 | 73 | 0 | 0.0 | 1.0 | 0.00 | 0.00 | 0.00 | 100 | 1014.2 |
| 20260510090030 | 73 | 0 | 0.0 | 2.0 | 0.00 | 0.00 | 0.00 | 100 | 1014.0 |
| 20260510084530 | 73 | 0 | 0.0 | 0.0 | 0.00 | 0.00 | 0.00 | 100 | 1013.9 |
| 20260510083031 | 73 | 0 | 0.0 | 1.0 | 0.00 | 0.00 | 0.00 | 100 | 1013.9 |
| 20260510081538 | 73 | 0 | 0.0 | 2.0 | 0.00 | 0.00 | 0.00 | 100 | 1013.7 |
| 20260510080033 | 73 | 171 | 0.0 | 6.0 | 0.00 | 0.00 | 0.00 | 100 | 1013.7 |
| 20260510074530 | 74 | 157 | 0.0 | 2.0 | 0.00 | 0.00 | 0.00 | 100 | 1013.6 |
| 20260510073028 | 74 | 0 | 1.0 | 6.0 | 0.00 | 0.00 | 0.00 | 100 | 1013.9 |
| 20260510071532 | 74 | 174 | 1.0 | 6.0 | 0.00 | 0.00 | 0.00 | 100 | 1013.8 |
| 20260510070034 | 73 | 0 | 0.0 | 3.0 | 0.00 | 0.00 | 0.00 | 100 | 1013.9 |
| 20260510064531 | 73 | 0 | 0.0 | 5.0 | 0.00 | 0.00 | 0.00 | 100 | 1014.2 |
| 20260510063033 | 73 | 0 | 0.0 | 5.0 | 0.00 | 0.00 | 0.00 | 100 | 1014.2 |
| 20260510061532 | 73 | 0 | 0.0 | 4.0 | 0.00 | 0.00 | 0.00 | 100 | 1014.4 |
| 20260510060028 | 73 | 0 | 0.0 | 2.0 | 0.00 | 0.00 | 0.00 | 100 | 1014.8 |
| 20260510054540 | 73 | 0 | 0.0 | 2.0 | 0.00 | 0.00 | 0.00 | 100 | 1015.0 |
| 20260510053030 | 72 | 0 | 0.0 | 2.0 | 0.00 | 0.00 | 0.00 | 100 | 1015.0 |
| 20260510051535 | 72 | 0 | 0.0 | 1.0 | 0.00 | 0.00 | 0.00 | 100 | 1015.4 |
| 20260510050031 | 72 | 0 | 0.0 | 1.0 | 0.00 | 0.00 | 0.00 | 2 | 1015.5 |
| 20260510044535 | 72 | 0 | 0.0 | 0.0 | 0.00 | 0.00 | 0.00 | 7 | 1015.8 |
| 20260510043028 | 72 | 0 | 0.0 | 0.0 | 0.00 | 0.00 | 0.00 | 13 | 1015.9 |
| 20260510041533 | 72 | 0 | 0.0 | 0.0 | 0.00 | 0.00 | 0.00 | 17 | 1015.9 |
| 20260510040030 | 73 | 0 | 0.0 | 0.0 | 0.00 | 0.00 | 0.00 | 16 | 1016.0 |
| 20260510034532 | 73 | 0 | 0.0 | 0.0 | 0.00 | 0.00 | 0.00 | 19 | 1016.1 |
| 20260510033029 | 73 | 0 | 0.0 | 0.0 | 0.00 | 0.00 | 0.00 | 19 | 1016.0 |
| 20260510031546 | 73 | 0 | 0.0 | 0.0 | 0.00 | 0.00 | 0.00 | 22 | 1015.9 |
| 20260510030035 | 73 | 0 | 0.0 | 2.0 | 0.00 | 0.00 | 0.00 | 25 | 1015.8 |
| 20260510024528 | 73 | 0 | 0.0 | 0.0 | 0.00 | 0.00 | 0.00 | 24 | 1015.7 |
| 20260510023032 | 74 | 0 | 0.0 | 0.0 | 0.00 | 0.00 | 0.00 | 28 | 1015.6 |
| 20260510021532 | 74 | 0 | 0.0 | 0.0 | 0.00 | 0.00 | 0.00 | 33 | 1015.5 |
| 20260510020030 | 74 | 0 | 0.0 | 0.0 | 0.00 | 0.00 | 0.00 | 34 | 1015.4 |
| 20260510014531 | 75 | 0 | 0.0 | 0.0 | 0.00 | 0.00 | 0.00 | 36 | 1015.1 |
| 20260510013030 | 75 | 0 | 0.0 | 0.0 | 0.00 | 0.00 | 0.00 | 41 | 1015.1 |
| 20260510011532 | 75 | 0 | 0.0 | 1.0 | 0.00 | 0.00 | 0.00 | 43 | 1014.9 |
| 20260510010032 | 76 | 0 | 0.0 | 2.0 | 0.00 | 0.00 | 0.00 | 45 | 1014.9 |
| 20260510004531 | 76 | 0 | 0.0 | 2.0 | 0.00 | 0.00 | 0.00 | 47 | 1014.6 |
| 20260510003030 | 77 | 0 | 0.0 | 5.0 | 0.00 | 0.00 | 0.00 | 47 | 1014.6 |
| 20260510001530 | 77 | 0 | 0.0 | 4.0 | 0.00 | 0.00 | 0.00 | 48 | 1014.5 |
| 20260510000031 | 78 | 0 | 0.0 | 4.0 | 0.00 | 0.00 | 0.00 | 49 | 1014.6 |
| 20260509234533 | 78 | 350 | 1.0 | 6.0 | 0.00 | 0.00 | 0.00 | 52 | 1014.2 |
| 20260509233030 | 80 | 345 | 1.0 | 8.0 | 0.00 | 0.00 | 0.00 | 52 | 1014.0 |
| 20260509231531 | 80 | 0 | 0.0 | 1.0 | 0.00 | 0.00 | 0.00 | 51 | 1014.1 |
| 20260509230031 | 80 | 0 | 1.0 | 6.0 | 0.00 | 0.00 | 0.00 | 52 | 1014.0 |
| 20260509224529 | 81 | 0 | 0.0 | 5.0 | 0.00 | 0.00 | 0.00 | 51 | 1014.1 |
| 20260509223028 | 81 | 350 | 2.0 | 8.0 | 0.00 | 0.00 | 0.00 | 51 | 1014.2 |
| 20260509221533 | 82 | 360 | 1.0 | 8.0 | 0.00 | 0.00 | 0.00 | 56 | 1014.2 |
| 20260509220028 | 82 | 0 | 0.0 | 8.0 | 0.00 | 0.00 | 0.00 | 59 | 1014.1 |
| 20260509214530 | 83 | 0 | 2.0 | 8.0 | 0.00 | 0.00 | 0.00 | 63 | 1013.9 |
| 20260509213032 | 84 | 257 | 1.0 | 9.0 | 0.00 | 0.00 | 0.00 | 66 | 1013.7 |
| 20260509211530 | 85 | 213 | 4.0 | 12.0 | 0.00 | 0.00 | 0.00 | 66 | 1013.4 |
| 20260509210043 | 85 | 241 | 2.0 | 9.0 | 0.00 | 0.00 | 0.00 | 66 | 1013.3 |
| 20260509204529 | 86 | 0 | 1.0 | 10.0 | 0.00 | 0.00 | 0.00 | 65 | 1013.4 |
| 20260509203027 | 86 | 255 | 4.0 | 12.0 | 0.00 | 0.00 | 0.00 | 65 | 1013.3 |
| 20260509201532 | 86 | 227 | 3.0 | 9.0 | 0.00 | 0.00 | 0.00 | 65 | 1013.3 |
| 20260509200032 | 86 | 184 | 1.0 | 13.0 | 0.00 | 0.00 | 0.00 | 65 | 1013.3 |
| 20260509194533 | 86 | 207 | 3.0 | 12.0 | 0.00 | 0.00 | 0.00 | 65 | 1013.3 |
| 20260509193029 | 85 | 238 | 4.0 | 10.0 | 0.00 | 0.00 | 0.00 | 65 | 1013.5 |
| 20260509191530 | 85 | 213 | 4.0 | 12.0 | 0.00 | 0.00 | 0.00 | 64 | 1013.6 |
| 20260509190035 | 85 | 196 | 5.0 | 14.0 | 0.00 | 0.00 | 0.00 | 65 | 1013.9 |
| 20260509184536 | 85 | 215 | 3.0 | 11.0 | 0.00 | 0.00 | 0.00 | 66 | 1014.0 |
| 20260509183032 | 86 | 238 | 2.0 | 9.0 | 0.00 | 0.00 | 0.00 | 66 | 1014.1 |